Aérodrome :
LOGIN :

S'inscrire | Disclaimer

   EN    FR    IT 

 










Légende :    VFR   VFR Marginal   IFR   IFR Intensif   IFR Très Intensif
Visi : 
Plafond : 
>= 8 km
>= 3000ft
5 à 8 km
1000 à 3000 ft
1500m à 5 km
500 à 1000 ft
800 à 1500m
200 à 500 ft
< 800m
< 200 ft
Symboles :   Orages  Brouillard  Fortes neiges  Fortes précipitations  Vent > 20 kt
SIGMETs :   Divers  Orages  Givrage  Turbulence  Onde Orograph.  Cendres Volcan.






- Altitude de l'aérodrome : 230 ft
- Code IATA : VAR


LBWN - Varna

DERNIER METAR :
  • 271100Z 22016KT 9999 FEW033CB SCT045 17/05 Q0999 TEMPO 5000 TSRA SCT040CB

METARs EXPIRÉS :
  • 271030Z 22015KT 9999 SCT042 17/06 Q0999 NOSIG
  • 271000Z 22014KT 9999 SCT042 17/07 Q1000 NOSIG
  • 270930Z 22013KT 9999 FEW040 18/08 Q1000 NOSIG
  • 270900Z 23011KT 9999 FEW036 17/08 Q1001 NOSIG
  • 270830Z 22015KT 9999 FEW036 17/08 Q1001 NOSIG

TAF TAF LBWN
Valide du 27 à 06h jusqu'au 28 à 06h UTC


270500Z 2706/2806 22014KT 9999 SCT030 BKN045
TEMPO 2709/2716 27020G32KT 4000 TSRA SCT012 SCT025CB OVC040
BECMG 2712/2713 28020KT
BECMG 2716/2718 28010KT



MET'MAP, la Météo Aéronautique d'un coup d'oeil ! - Copyright ORBIFLY Décembre 2007 - Disclaimer

ORBIFLY MET'MAP TEAM :

Programmation & Développement : Alexandra Zaïnal
Sur une idée originale de : Baudouin d'Aumeries
Assistance à la programmation : Marc-Olivier Méhu
Soutien technique & logistique : Manuel Goepfert

Contact : metmap@orbifly.com




SOURCES & CREDITS :

   NOAA